Hildesheim, Germany

6:13 PM CEST on July 30, 2016 (GMT +0200)
Lindenstraße | | Change Station

Elev 318 ft 52.16 °N, 10.02 °E | Updated 10 minutes ago

Scattered Clouds
Scattered Clouds
74.5 °F
Feels Like 77 °F
N
1.9
Wind Variable Wind from West
Gusts 6.2 mph

Today
High -- | Low -- °F
--% Chance of Precip.
Yesterday
High -- | Low -- °F
Precip. -- in
Pressure 29.89 in
Visibility 6.2 miles
Clouds Few 3600 ft
Scattered Clouds 5500 ft
Heat Index 77 °F
Dew Point 58 °F
Humidity 55%
Rainfall 0.02 in
Snow Depth Not available.
5:38 AM 9:13 PM
Waning Crescent, 12% visible
METAR EDDV 301550Z 28011KT 240V300 9999 FEW036TCU SCT055 22/14 Q1012 NOSIG
Pressure 29.89 in
Visibility 6.2 miles
Clouds Few 3600 ft
Scattered Clouds 5500 ft
Heat Index 77 °F
Dew Point 58 °F
Humidity 55%
Rainfall 0.02 in
Snow Depth Not available.
5:38 AM 9:13 PM
Waning Crescent, 12% visible
METAR EDDV 301550Z 28011KT 240V300 9999 FEW036TCU SCT055 22/14 Q1012 NOSIG

10-Day Weather Forecast

×

Almanac

Astronomy

Jul. 30, 2016 Rise Set
Actual Time
Civil Twilight
Nautical Twilight
Astronomical Twilight
Moon
Length of Visible Light
Length of Day
Tomorrow will be .
, % of the Moon is Illuminated

Today's Extremes

Country Highs Country Lows

Community

WunderPhotos

Upload Photos

1,928,593 photos uploaded!

WunderBlog® & News

Nearby

Air Quality

  Air Quality AQ Index Pollutant
Not available.

Snow Depth

Station Depth Elevation

Earthquake Activity

City Distance Mag. Time & Date
Minimum magnitude displayed is 2.5.

Coastal Water Temperatures

Place Temperature

Stations

Nearby Weather Stations

Station Location Temp. Windchill Dew Point Humidity Wind Precip. Elev Updated Type